sensor_id;sensor_type;location;lat;lon;timestamp;temperature;humidity
13606;DHT22;6874;52.084;5.090;2023-04-12T00:01:55;11.00;99.90
13606;DHT22;6874;52.084;5.090;2023-04-12T00:04:20;11.00;99.90
13606;DHT22;6874;52.084;5.090;2023-04-12T00:06:47;11.00;99.90
13606;DHT22;6874;52.084;5.090;2023-04-12T00:09:13;11.00;99.90
13606;DHT22;6874;52.084;5.090;2023-04-12T00:11:40;11.00;99.90
13606;DHT22;6874;52.084;5.090;2023-04-12T00:14:06;10.90;99.90
13606;DHT22;6874;52.084;5.090;2023-04-12T00:16:32;10.90;99.90
13606;DHT22;6874;52.084;5.090;2023-04-12T00:18:58;10.90;99.90
13606;DHT22;6874;52.084;5.090;2023-04-12T00:21:23;10.90;99.90
13606;DHT22;6874;52.084;5.090;2023-04-12T00:23:53;10.90;99.90
13606;DHT22;6874;52.084;5.090;2023-04-12T00:26:19;10.90;99.90
13606;DHT22;6874;52.084;5.090;2023-04-12T00:28:46;10.80;99.90
13606;DHT22;6874;52.084;5.090;2023-04-12T00:31:12;10.80;99.90
13606;DHT22;6874;52.084;5.090;2023-04-12T00:33:38;10.80;99.90
13606;DHT22;6874;52.084;5.090;2023-04-12T00:36:03;10.80;99.90
13606;DHT22;6874;52.084;5.090;2023-04-12T00:38:29;10.80;99.90
13606;DHT22;6874;52.084;5.090;2023-04-12T00:40:55;10.80;99.90
13606;DHT22;6874;52.084;5.090;2023-04-12T00:43:20;10.70;99.90
13606;DHT22;6874;52.084;5.090;2023-04-12T00:45:47;10.70;99.90
13606;DHT22;6874;52.084;5.090;2023-04-12T00:48:13;10.70;99.90
13606;DHT22;6874;52.084;5.090;2023-04-12T00:50:39;10.70;99.90
13606;DHT22;6874;52.084;5.090;2023-04-12T00:53:13;10.70;99.90
13606;DHT22;6874;52.084;5.090;2023-04-12T00:55:45;10.70;99.90
13606;DHT22;6874;52.084;5.090;2023-04-12T00:58:12;10.60;99.90
13606;DHT22;6874;52.084;5.090;2023-04-12T01:00:38;10.60;99.90
13606;DHT22;6874;52.084;5.090;2023-04-12T01:03:04;10.60;99.90
13606;DHT22;6874;52.084;5.090;2023-04-12T01:05:40;10.60;99.90
13606;DHT22;6874;52.084;5.090;2023-04-12T01:13:34;10.60;99.90
13606;DHT22;6874;52.084;5.090;2023-04-12T01:16:11;10.50;99.90
13606;DHT22;6874;52.084;5.090;2023-04-12T01:18:40;10.50;99.90
13606;DHT22;6874;52.084;5.090;2023-04-12T01:21:15;10.50;99.90
13606;DHT22;6874;52.084;5.090;2023-04-12T01:24:02;10.50;99.90
13606;DHT22;6874;52.084;5.090;2023-04-12T01:26:42;10.50;99.90
13606;DHT22;6874;52.084;5.090;2023-04-12T01:29:13;10.40;99.90
13606;DHT22;6874;52.084;5.090;2023-04-12T01:31:48;10.40;99.90
13606;DHT22;6874;52.084;5.090;2023-04-12T01:34:15;10.40;99.90
13606;DHT22;6874;52.084;5.090;2023-04-12T01:36:43;10.40;99.90
13606;DHT22;6874;52.084;5.090;2023-04-12T01:39:10;10.40;99.90
13606;DHT22;6874;52.084;5.090;2023-04-12T01:41:40;10.40;99.90
13606;DHT22;6874;52.084;5.090;2023-04-12T01:44:12;10.30;99.90
13606;DHT22;6874;52.084;5.090;2023-04-12T01:46:38;10.30;99.90
13606;DHT22;6874;52.084;5.090;2023-04-12T01:49:03;10.30;99.90
13606;DHT22;6874;52.084;5.090;2023-04-12T01:54:06;10.30;99.90
13606;DHT22;6874;52.084;5.090;2023-04-12T01:56:38;10.30;99.90
13606;DHT22;6874;52.084;5.090;2023-04-12T01:59:05;10.20;99.90
13606;DHT22;6874;52.084;5.090;2023-04-12T02:01:31;10.20;99.90
13606;DHT22;6874;52.084;5.090;2023-04-12T02:03:58;10.30;99.90
13606;DHT22;6874;52.084;5.090;2023-04-12T02:06:25;10.20;99.90
13606;DHT22;6874;52.084;5.090;2023-04-12T02:09:00;10.20;99.90
13606;DHT22;6874;52.084;5.090;2023-04-12T02:11:26;10.20;99.90
13606;DHT22;6874;52.084;5.090;2023-04-12T02:13:52;10.20;99.90
13606;DHT22;6874;52.084;5.090;2023-04-12T02:16:17;10.20;99.90
13606;DHT22;6874;52.084;5.090;2023-04-12T02:18:45;10.20;99.90
13606;DHT22;6874;52.084;5.090;2023-04-12T02:21:10;10.20;99.90
13606;DHT22;6874;52.084;5.090;2023-04-12T02:23:36;10.20;99.90
13606;DHT22;6874;52.084;5.090;2023-04-12T02:26:02;10.10;99.90
13606;DHT22;6874;52.084;5.090;2023-04-12T02:28:28;10.10;99.90
13606;DHT22;6874;52.084;5.090;2023-04-12T02:30:53;10.20;99.90
13606;DHT22;6874;52.084;5.090;2023-04-12T02:33:19;10.10;99.90
13606;DHT22;6874;52.084;5.090;2023-04-12T02:35:50;10.10;99.90
13606;DHT22;6874;52.084;5.090;2023-04-12T02:38:16;10.10;99.90
13606;DHT22;6874;52.084;5.090;2023-04-12T02:40:41;10.10;99.90
13606;DHT22;6874;52.084;5.090;2023-04-12T02:43:08;10.10;99.90
13606;DHT22;6874;52.084;5.090;2023-04-12T02:45:34;10.10;99.90
13606;DHT22;6874;52.084;5.090;2023-04-12T02:48:00;10.10;99.90
13606;DHT22;6874;52.084;5.090;2023-04-12T02:50:25;10.00;99.90
13606;DHT22;6874;52.084;5.090;2023-04-12T02:52:51;10.00;99.90
13606;DHT22;6874;52.084;5.090;2023-04-12T02:55:16;10.00;99.90
13606;DHT22;6874;52.084;5.090;2023-04-12T02:57:44;10.00;99.90
13606;DHT22;6874;52.084;5.090;2023-04-12T03:00:11;10.00;99.90
13606;DHT22;6874;52.084;5.090;2023-04-12T03:02:36;10.00;99.90
13606;DHT22;6874;52.084;5.090;2023-04-12T03:05:03;10.00;99.90
13606;DHT22;6874;52.084;5.090;2023-04-12T03:07:29;10.00;99.90
13606;DHT22;6874;52.084;5.090;2023-04-12T03:09:55;10.00;99.90
13606;DHT22;6874;52.084;5.090;2023-04-12T03:12:21;9.90;99.90
13606;DHT22;6874;52.084;5.090;2023-04-12T03:14:47;10.00;99.90
13606;DHT22;6874;52.084;5.090;2023-04-12T03:17:12;9.90;99.90
13606;DHT22;6874;52.084;5.090;2023-04-12T03:19:38;9.90;99.90
13606;DHT22;6874;52.084;5.090;2023-04-12T03:22:04;9.90;99.90
13606;DHT22;6874;52.084;5.090;2023-04-12T03:24:30;9.90;99.90
13606;DHT22;6874;52.084;5.090;2023-04-12T03:27:03;9.90;99.90
13606;DHT22;6874;52.084;5.090;2023-04-12T03:29:29;9.90;99.90
13606;DHT22;6874;52.084;5.090;2023-04-12T03:31:56;9.90;99.90
13606;DHT22;6874;52.084;5.090;2023-04-12T03:34:23;9.90;99.90
13606;DHT22;6874;52.084;5.090;2023-04-12T03:36:49;9.90;99.90
13606;DHT22;6874;52.084;5.090;2023-04-12T03:39:15;9.80;99.90
13606;DHT22;6874;52.084;5.090;2023-04-12T03:41:41;9.80;99.90
13606;DHT22;6874;52.084;5.090;2023-04-12T03:44:07;9.80;99.90
13606;DHT22;6874;52.084;5.090;2023-04-12T03:46:33;9.80;99.90
13606;DHT22;6874;52.084;5.090;2023-04-12T03:48:59;9.80;99.90
13606;DHT22;6874;52.084;5.090;2023-04-12T03:51:24;9.80;99.90
13606;DHT22;6874;52.084;5.090;2023-04-12T03:53:52;9.80;99.90
13606;DHT22;6874;52.084;5.090;2023-04-12T03:56:18;9.80;99.90
13606;DHT22;6874;52.084;5.090;2023-04-12T03:58:45;9.70;99.90
13606;DHT22;6874;52.084;5.090;2023-04-12T04:01:11;9.70;99.90
13606;DHT22;6874;52.084;5.090;2023-04-12T04:03:39;9.70;99.90
13606;DHT22;6874;52.084;5.090;2023-04-12T04:06:05;9.70;99.90
13606;DHT22;6874;52.084;5.090;2023-04-12T04:08:31;9.70;99.90
13606;DHT22;6874;52.084;5.090;2023-04-12T04:10:58;9.70;99.90
13606;DHT22;6874;52.084;5.090;2023-04-12T04:13:23;9.70;99.90
13606;DHT22;6874;52.084;5.090;2023-04-12T04:15:53;9.70;99.90
13606;DHT22;6874;52.084;5.090;2023-04-12T04:18:18;9.70;99.90
13606;DHT22;6874;52.084;5.090;2023-04-12T04:20:44;9.70;99.90
13606;DHT22;6874;52.084;5.090;2023-04-12T04:23:10;9.70;99.90
13606;DHT22;6874;52.084;5.090;2023-04-12T04:25:35;9.70;99.90
13606;DHT22;6874;52.084;5.090;2023-04-12T04:28:05;9.60;99.90
13606;DHT22;6874;52.084;5.090;2023-04-12T04:30:32;9.60;99.90
13606;DHT22;6874;52.084;5.090;2023-04-12T04:32:58;9.60;99.90
13606;DHT22;6874;52.084;5.090;2023-04-12T04:35:24;9.60;99.90
13606;DHT22;6874;52.084;5.090;2023-04-12T04:37:50;9.60;99.90
13606;DHT22;6874;52.084;5.090;2023-04-12T04:40:17;9.60;99.90
13606;DHT22;6874;52.084;5.090;2023-04-12T04:42:45;9.60;99.90
13606;DHT22;6874;52.084;5.090;2023-04-12T04:45:20;9.60;99.90
13606;DHT22;6874;52.084;5.090;2023-04-12T04:47:46;9.60;99.90
13606;DHT22;6874;52.084;5.090;2023-04-12T04:50:11;9.60;99.90
13606;DHT22;6874;52.084;5.090;2023-04-12T04:52:37;9.60;99.90
13606;DHT22;6874;52.084;5.090;2023-04-12T04:55:03;9.60;99.90
13606;DHT22;6874;52.084;5.090;2023-04-12T04:57:29;9.60;99.90
13606;DHT22;6874;52.084;5.090;2023-04-12T04:59:55;9.50;99.90
13606;DHT22;6874;52.084;5.090;2023-04-12T05:02:20;9.50;99.90
13606;DHT22;6874;52.084;5.090;2023-04-12T05:04:46;9.50;99.90
13606;DHT22;6874;52.084;5.090;2023-04-12T05:07:12;9.50;99.90
13606;DHT22;6874;52.084;5.090;2023-04-12T05:09:38;9.50;99.90
13606;DHT22;6874;52.084;5.090;2023-04-12T05:12:04;9.50;99.90
13606;DHT22;6874;52.084;5.090;2023-04-12T05:14:30;9.50;99.90
13606;DHT22;6874;52.084;5.090;2023-04-12T05:16:55;9.50;99.90
13606;DHT22;6874;52.084;5.090;2023-04-12T05:19:21;9.50;99.90
13606;DHT22;6874;52.084;5.090;2023-04-12T05:21:47;9.50;99.90
13606;DHT22;6874;52.084;5.090;2023-04-12T05:24:12;9.50;99.90
13606;DHT22;6874;52.084;5.090;2023-04-12T05:26:38;9.50;99.90
13606;DHT22;6874;52.084;5.090;2023-04-12T05:29:03;9.50;99.90
13606;DHT22;6874;52.084;5.090;2023-04-12T05:31:30;9.50;99.90
13606;DHT22;6874;52.084;5.090;2023-04-12T05:33:56;9.50;99.90
13606;DHT22;6874;52.084;5.090;2023-04-12T05:36:22;9.50;99.90
13606;DHT22;6874;52.084;5.090;2023-04-12T05:38:47;9.50;99.90
13606;DHT22;6874;52.084;5.090;2023-04-12T05:41:13;9.50;99.90
13606;DHT22;6874;52.084;5.090;2023-04-12T05:43:38;9.50;99.90
13606;DHT22;6874;52.084;5.090;2023-04-12T05:46:04;9.50;99.90
13606;DHT22;6874;52.084;5.090;2023-04-12T05:48:32;9.50;99.90
13606;DHT22;6874;52.084;5.090;2023-04-12T05:50:57;9.50;99.90
13606;DHT22;6874;52.084;5.090;2023-04-12T05:53:23;9.50;99.90
13606;DHT22;6874;52.084;5.090;2023-04-12T05:55:49;9.50;99.90
13606;DHT22;6874;52.084;5.090;2023-04-12T05:58:15;9.50;99.90
13606;DHT22;6874;52.084;5.090;2023-04-12T06:00:41;9.50;99.90
13606;DHT22;6874;52.084;5.090;2023-04-12T06:03:10;9.40;99.90
13606;DHT22;6874;52.084;5.090;2023-04-12T06:05:36;9.50;99.90
13606;DHT22;6874;52.084;5.090;2023-04-12T06:08:02;9.50;99.90
13606;DHT22;6874;52.084;5.090;2023-04-12T06:10:29;9.40;99.90
13606;DHT22;6874;52.084;5.090;2023-04-12T06:12:55;9.50;99.90
13606;DHT22;6874;52.084;5.090;2023-04-12T06:15:21;9.50;99.90
13606;DHT22;6874;52.084;5.090;2023-04-12T06:17:46;9.50;99.90
13606;DHT22;6874;52.084;5.090;2023-04-12T06:20:12;9.50;99.90
13606;DHT22;6874;52.084;5.090;2023-04-12T06:22:37;9.50;99.90
13606;DHT22;6874;52.084;5.090;2023-04-12T06:25:04;9.50;99.90
13606;DHT22;6874;52.084;5.090;2023-04-12T06:27:30;9.50;99.90
13606;DHT22;6874;52.084;5.090;2023-04-12T06:29:56;9.50;99.90
13606;DHT22;6874;52.084;5.090;2023-04-12T06:32:22;9.50;99.90
13606;DHT22;6874;52.084;5.090;2023-04-12T06:34:47;9.50;99.90
13606;DHT22;6874;52.084;5.090;2023-04-12T06:37:13;9.50;99.90
13606;DHT22;6874;52.084;5.090;2023-04-12T06:39:38;9.50;99.90
13606;DHT22;6874;52.084;5.090;2023-04-12T06:42:04;9.50;99.90
13606;DHT22;6874;52.084;5.090;2023-04-12T06:44:30;9.50;99.90
13606;DHT22;6874;52.084;5.090;2023-04-12T06:46:57;9.50;99.90
13606;DHT22;6874;52.084;5.090;2023-04-12T06:49:23;9.50;99.90
13606;DHT22;6874;52.084;5.090;2023-04-12T06:51:48;9.50;99.90
13606;DHT22;6874;52.084;5.090;2023-04-12T06:54:14;9.50;99.90
13606;DHT22;6874;52.084;5.090;2023-04-12T06:56:39;9.50;99.90
13606;DHT22;6874;52.084;5.090;2023-04-12T06:59:05;9.60;99.90
13606;DHT22;6874;52.084;5.090;2023-04-12T07:01:31;9.50;99.90
13606;DHT22;6874;52.084;5.090;2023-04-12T07:03:56;9.60;99.90
13606;DHT22;6874;52.084;5.090;2023-04-12T07:06:22;9.60;99.90
13606;DHT22;6874;52.084;5.090;2023-04-12T07:08:47;9.50;99.90
13606;DHT22;6874;52.084;5.090;2023-04-12T07:11:13;9.60;99.90
13606;DHT22;6874;52.084;5.090;2023-04-12T07:13:39;9.60;99.90
13606;DHT22;6874;52.084;5.090;2023-04-12T07:16:05;9.60;99.90
13606;DHT22;6874;52.084;5.090;2023-04-12T07:18:31;9.60;99.90
13606;DHT22;6874;52.084;5.090;2023-04-12T07:20:57;9.60;99.90
13606;DHT22;6874;52.084;5.090;2023-04-12T07:23:22;9.60;99.90
13606;DHT22;6874;52.084;5.090;2023-04-12T07:25:50;9.60;99.90
13606;DHT22;6874;52.084;5.090;2023-04-12T07:28:15;9.70;99.90
13606;DHT22;6874;52.084;5.090;2023-04-12T07:30:41;9.60;99.90
13606;DHT22;6874;52.084;5.090;2023-04-12T07:33:06;9.70;99.90
13606;DHT22;6874;52.084;5.090;2023-04-12T07:35:32;9.70;99.90
13606;DHT22;6874;52.084;5.090;2023-04-12T07:37:58;9.70;99.90
13606;DHT22;6874;52.084;5.090;2023-04-12T07:40:24;9.70;99.90
13606;DHT22;6874;52.084;5.090;2023-04-12T07:42:50;9.70;99.90
13606;DHT22;6874;52.084;5.090;2023-04-12T07:45:16;9.70;99.90
13606;DHT22;6874;52.084;5.090;2023-04-12T07:47:41;9.80;99.90
13606;DHT22;6874;52.084;5.090;2023-04-12T07:50:07;9.80;99.90
13606;DHT22;6874;52.084;5.090;2023-04-12T07:52:33;9.80;99.90
13606;DHT22;6874;52.084;5.090;2023-04-12T07:54:59;9.80;99.90
13606;DHT22;6874;52.084;5.090;2023-04-12T07:57:24;9.80;99.90
13606;DHT22;6874;52.084;5.090;2023-04-12T07:59:51;9.80;99.90
13606;DHT22;6874;52.084;5.090;2023-04-12T08:02:17;9.90;99.90
13606;DHT22;6874;52.084;5.090;2023-04-12T08:04:52;9.90;99.90
13606;DHT22;6874;52.084;5.090;2023-04-12T08:07:19;9.90;99.90
13606;DHT22;6874;52.084;5.090;2023-04-12T08:09:46;9.90;99.90
13606;DHT22;6874;52.084;5.090;2023-04-12T08:12:12;9.90;99.90
13606;DHT22;6874;52.084;5.090;2023-04-12T08:14:38;9.90;99.90
13606;DHT22;6874;52.084;5.090;2023-04-12T08:17:03;10.00;99.90
13606;DHT22;6874;52.084;5.090;2023-04-12T08:19:29;10.00;99.90
13606;DHT22;6874;52.084;5.090;2023-04-12T08:21:54;10.00;99.90
13606;DHT22;6874;52.084;5.090;2023-04-12T08:24:20;10.10;99.90
13606;DHT22;6874;52.084;5.090;2023-04-12T08:26:46;10.10;99.90
13606;DHT22;6874;52.084;5.090;2023-04-12T08:29:12;10.10;99.90
13606;DHT22;6874;52.084;5.090;2023-04-12T08:31:38;10.10;99.90
13606;DHT22;6874;52.084;5.090;2023-04-12T08:34:04;10.20;99.90
13606;DHT22;6874;52.084;5.090;2023-04-12T08:36:29;10.20;99.90
13606;DHT22;6874;52.084;5.090;2023-04-12T08:39:00;10.20;99.90
13606;DHT22;6874;52.084;5.090;2023-04-12T08:41:26;10.20;99.90
13606;DHT22;6874;52.084;5.090;2023-04-12T08:43:52;10.20;99.90
13606;DHT22;6874;52.084;5.090;2023-04-12T08:46:19;10.20;99.90
13606;DHT22;6874;52.084;5.090;2023-04-12T08:48:47;10.20;99.90
13606;DHT22;6874;52.084;5.090;2023-04-12T08:51:17;10.30;99.90
13606;DHT22;6874;52.084;5.090;2023-04-12T08:53:43;10.30;99.90
13606;DHT22;6874;52.084;5.090;2023-04-12T08:56:09;10.40;99.90
13606;DHT22;6874;52.084;5.090;2023-04-12T08:58:38;10.40;99.90
13606;DHT22;6874;52.084;5.090;2023-04-12T09:01:09;10.50;99.90
13606;DHT22;6874;52.084;5.090;2023-04-12T09:03:35;10.50;99.90
13606;DHT22;6874;52.084;5.090;2023-04-12T09:06:02;10.60;99.90
13606;DHT22;6874;52.084;5.090;2023-04-12T09:08:27;10.60;99.90
13606;DHT22;6874;52.084;5.090;2023-04-12T09:10:53;10.70;99.90
13606;DHT22;6874;52.084;5.090;2023-04-12T09:13:31;10.70;99.90
13606;DHT22;6874;52.084;5.090;2023-04-12T09:15:56;10.80;99.90
13606;DHT22;6874;52.084;5.090;2023-04-12T09:18:22;10.80;99.90
13606;DHT22;6874;52.084;5.090;2023-04-12T09:20:48;10.90;99.90
13606;DHT22;6874;52.084;5.090;2023-04-12T09:23:23;10.90;99.90
13606;DHT22;6874;52.084;5.090;2023-04-12T09:25:49;11.00;99.90
13606;DHT22;6874;52.084;5.090;2023-04-12T09:28:27;11.10;99.90
13606;DHT22;6874;52.084;5.090;2023-04-12T09:30:55;11.10;99.90
13606;DHT22;6874;52.084;5.090;2023-04-12T09:33:31;11.20;99.90
13606;DHT22;6874;52.084;5.090;2023-04-12T09:36:01;11.20;99.90
13606;DHT22;6874;52.084;5.090;2023-04-12T09:38:30;11.30;99.90
13606;DHT22;6874;52.084;5.090;2023-04-12T09:40:56;11.40;99.90
13606;DHT22;6874;52.084;5.090;2023-04-12T09:43:42;11.40;99.90
13606;DHT22;6874;52.084;5.090;2023-04-12T09:46:09;11.50;99.90
13606;DHT22;6874;52.084;5.090;2023-04-12T09:48:37;11.50;99.90
13606;DHT22;6874;52.084;5.090;2023-04-12T09:51:04;11.50;99.90
13606;DHT22;6874;52.084;5.090;2023-04-12T09:53:32;11.60;99.90
13606;DHT22;6874;52.084;5.090;2023-04-12T09:55:58;11.70;99.90
13606;DHT22;6874;52.084;5.090;2023-04-12T09:58:26;11.70;99.90
13606;DHT22;6874;52.084;5.090;2023-04-12T10:00:52;11.80;99.90
13606;DHT22;6874;52.084;5.090;2023-04-12T10:03:18;11.90;99.90
13606;DHT22;6874;52.084;5.090;2023-04-12T10:05:44;11.90;99.90
13606;DHT22;6874;52.084;5.090;2023-04-12T10:08:13;12.00;99.90
13606;DHT22;6874;52.084;5.090;2023-04-12T10:10:39;12.10;99.90
13606;DHT22;6874;52.084;5.090;2023-04-12T10:13:05;12.10;99.90
13606;DHT22;6874;52.084;5.090;2023-04-12T10:15:31;12.20;99.90
13606;DHT22;6874;52.084;5.090;2023-04-12T10:17:59;12.20;99.90
13606;DHT22;6874;52.084;5.090;2023-04-12T10:20:26;12.20;99.90
13606;DHT22;6874;52.084;5.090;2023-04-12T10:22:52;12.30;99.90
13606;DHT22;6874;52.084;5.090;2023-04-12T10:25:20;12.30;99.90
13606;DHT22;6874;52.084;5.090;2023-04-12T10:27:47;12.40;99.90
13606;DHT22;6874;52.084;5.090;2023-04-12T10:30:29;12.30;99.90
13606;DHT22;6874;52.084;5.090;2023-04-12T10:35:27;12.40;99.90
13606;DHT22;6874;52.084;5.090;2023-04-12T10:38:03;12.50;99.90
13606;DHT22;6874;52.084;5.090;2023-04-12T10:40:32;12.60;99.90
13606;DHT22;6874;52.084;5.090;2023-04-12T10:43:23;12.60;99.90
13606;DHT22;6874;52.084;5.090;2023-04-12T10:45:50;12.70;99.90
13606;DHT22;6874;52.084;5.090;2023-04-12T10:48:33;12.70;99.90
13606;DHT22;6874;52.084;5.090;2023-04-12T10:53:43;12.80;99.90
13606;DHT22;6874;52.084;5.090;2023-04-12T10:56:46;12.80;99.90
13606;DHT22;6874;52.084;5.090;2023-04-12T10:59:12;12.80;99.90
13606;DHT22;6874;52.084;5.090;2023-04-12T11:01:39;12.80;99.90
13606;DHT22;6874;52.084;5.090;2023-04-12T11:07:00;12.90;99.90
13606;DHT22;6874;52.084;5.090;2023-04-12T11:14:36;13.10;99.90
13606;DHT22;6874;52.084;5.090;2023-04-12T11:19:40;13.30;99.90
13606;DHT22;6874;52.084;5.090;2023-04-12T11:22:11;13.50;99.90
13606;DHT22;6874;52.084;5.090;2023-04-12T11:24:42;13.70;99.90
13606;DHT22;6874;52.084;5.090;2023-04-12T11:27:08;13.80;99.90
13606;DHT22;6874;52.084;5.090;2023-04-12T11:29:34;14.00;99.90
13606;DHT22;6874;52.084;5.090;2023-04-12T11:32:04;14.10;99.90
13606;DHT22;6874;52.084;5.090;2023-04-12T11:34:35;14.20;99.90
13606;DHT22;6874;52.084;5.090;2023-04-12T11:37:02;14.20;99.90
13606;DHT22;6874;52.084;5.090;2023-04-12T11:39:30;14.30;99.90
13606;DHT22;6874;52.084;5.090;2023-04-12T11:41:57;14.40;99.90
13606;DHT22;6874;52.084;5.090;2023-04-12T11:44:23;14.40;99.90
13606;DHT22;6874;52.084;5.090;2023-04-12T11:46:48;14.40;99.90
13606;DHT22;6874;52.084;5.090;2023-04-12T11:49:15;14.50;99.90
13606;DHT22;6874;52.084;5.090;2023-04-12T11:51:42;14.50;99.90
13606;DHT22;6874;52.084;5.090;2023-04-12T11:54:07;14.50;99.90
13606;DHT22;6874;52.084;5.090;2023-04-12T11:56:33;14.50;99.90
13606;DHT22;6874;52.084;5.090;2023-04-12T11:58:58;14.60;99.90
13606;DHT22;6874;52.084;5.090;2023-04-12T12:01:24;14.60;99.90
13606;DHT22;6874;52.084;5.090;2023-04-12T12:03:52;14.70;99.90
13606;DHT22;6874;52.084;5.090;2023-04-12T12:06:18;14.70;99.90
13606;DHT22;6874;52.084;5.090;2023-04-12T12:08:44;14.80;99.90
13606;DHT22;6874;52.084;5.090;2023-04-12T12:11:09;14.80;99.90
13606;DHT22;6874;52.084;5.090;2023-04-12T12:13:54;14.80;99.90
13606;DHT22;6874;52.084;5.090;2023-04-12T12:16:28;14.80;99.90
13606;DHT22;6874;52.084;5.090;2023-04-12T12:18:55;14.80;99.90
13606;DHT22;6874;52.084;5.090;2023-04-12T12:21:21;14.90;99.90
13606;DHT22;6874;52.084;5.090;2023-04-12T12:23:48;14.80;99.90
13606;DHT22;6874;52.084;5.090;2023-04-12T12:26:25;14.80;99.90
13606;DHT22;6874;52.084;5.090;2023-04-12T12:28:53;14.90;99.90
13606;DHT22;6874;52.084;5.090;2023-04-12T12:31:21;14.80;99.90
13606;DHT22;6874;52.084;5.090;2023-04-12T12:33:47;14.80;99.90
13606;DHT22;6874;52.084;5.090;2023-04-12T12:36:12;14.80;99.90
13606;DHT22;6874;52.084;5.090;2023-04-12T12:38:41;14.80;99.90
13606;DHT22;6874;52.084;5.090;2023-04-12T12:41:18;14.70;99.90
13606;DHT22;6874;52.084;5.090;2023-04-12T12:46:11;14.70;99.90
13606;DHT22;6874;52.084;5.090;2023-04-12T12:48:43;14.80;99.90
13606;DHT22;6874;52.084;5.090;2023-04-12T12:51:09;14.70;99.90
13606;DHT22;6874;52.084;5.090;2023-04-12T12:53:36;14.70;99.90
13606;DHT22;6874;52.084;5.090;2023-04-12T12:56:02;14.70;99.90
13606;DHT22;6874;52.084;5.090;2023-04-12T12:58:28;14.60;99.90
13606;DHT22;6874;52.084;5.090;2023-04-12T13:00:54;14.60;99.90
13606;DHT22;6874;52.084;5.090;2023-04-12T13:03:19;14.60;99.90
13606;DHT22;6874;52.084;5.090;2023-04-12T13:05:45;14.60;99.90
13606;DHT22;6874;52.084;5.090;2023-04-12T13:08:11;14.50;99.90
13606;DHT22;6874;52.084;5.090;2023-04-12T13:10:37;14.50;99.90
13606;DHT22;6874;52.084;5.090;2023-04-12T13:13:02;14.50;99.90
13606;DHT22;6874;52.084;5.090;2023-04-12T13:15:28;14.50;99.90
13606;DHT22;6874;52.084;5.090;2023-04-12T13:17:54;14.40;99.90
13606;DHT22;6874;52.084;5.090;2023-04-12T13:20:21;14.50;99.90
13606;DHT22;6874;52.084;5.090;2023-04-12T13:22:47;14.50;99.90
13606;DHT22;6874;52.084;5.090;2023-04-12T13:25:12;14.50;99.90
13606;DHT22;6874;52.084;5.090;2023-04-12T13:27:38;14.60;99.90
13606;DHT22;6874;52.084;5.090;2023-04-12T13:30:04;14.60;99.90
13606;DHT22;6874;52.084;5.090;2023-04-12T13:32:30;14.60;99.90
13606;DHT22;6874;52.084;5.090;2023-04-12T13:34:55;14.70;99.90
13606;DHT22;6874;52.084;5.090;2023-04-12T13:37:21;14.80;99.90
13606;DHT22;6874;52.084;5.090;2023-04-12T13:39:48;14.70;99.90
13606;DHT22;6874;52.084;5.090;2023-04-12T13:42:14;14.80;99.90
13606;DHT22;6874;52.084;5.090;2023-04-12T13:44:39;14.80;99.90
13606;DHT22;6874;52.084;5.090;2023-04-12T13:47:05;14.90;99.90
13606;DHT22;6874;52.084;5.090;2023-04-12T13:49:30;14.90;99.90
13606;DHT22;6874;52.084;5.090;2023-04-12T13:51:56;15.00;99.90
13606;DHT22;6874;52.084;5.090;2023-04-12T13:54:21;15.00;99.90
13606;DHT22;6874;52.084;5.090;2023-04-12T13:56:47;15.10;99.90
13606;DHT22;6874;52.084;5.090;2023-04-12T13:59:13;15.10;99.90
13606;DHT22;6874;52.084;5.090;2023-04-12T14:01:39;15.10;99.90
13606;DHT22;6874;52.084;5.090;2023-04-12T14:04:05;15.20;99.90
13606;DHT22;6874;52.084;5.090;2023-04-12T14:06:31;15.20;99.90
13606;DHT22;6874;52.084;5.090;2023-04-12T14:08:57;15.20;99.90
13606;DHT22;6874;52.084;5.090;2023-04-12T14:11:23;15.10;99.90
13606;DHT22;6874;52.084;5.090;2023-04-12T14:13:51;15.10;99.90
13606;DHT22;6874;52.084;5.090;2023-04-12T14:16:17;15.10;99.90
13606;DHT22;6874;52.084;5.090;2023-04-12T14:18:42;15.00;99.90
13606;DHT22;6874;52.084;5.090;2023-04-12T14:21:08;15.00;99.90
13606;DHT22;6874;52.084;5.090;2023-04-12T14:23:34;14.90;99.90
13606;DHT22;6874;52.084;5.090;2023-04-12T14:26:00;14.90;99.90
13606;DHT22;6874;52.084;5.090;2023-04-12T14:28:27;14.90;99.90
13606;DHT22;6874;52.084;5.090;2023-04-12T14:30:58;14.80;99.90
13606;DHT22;6874;52.084;5.090;2023-04-12T14:33:26;14.80;99.90
13606;DHT22;6874;52.084;5.090;2023-04-12T14:35:52;14.80;99.90
13606;DHT22;6874;52.084;5.090;2023-04-12T14:38:18;14.80;99.90
13606;DHT22;6874;52.084;5.090;2023-04-12T14:40:44;14.80;99.90
13606;DHT22;6874;52.084;5.090;2023-04-12T14:43:10;14.80;99.90
13606;DHT22;6874;52.084;5.090;2023-04-12T14:45:36;14.80;99.90
13606;DHT22;6874;52.084;5.090;2023-04-12T14:48:02;14.80;99.90
13606;DHT22;6874;52.084;5.090;2023-04-12T14:50:27;14.80;99.90
13606;DHT22;6874;52.084;5.090;2023-04-12T14:52:53;14.80;99.90
13606;DHT22;6874;52.084;5.090;2023-04-12T14:55:18;14.80;99.90
13606;DHT22;6874;52.084;5.090;2023-04-12T14:57:45;14.70;99.90
13606;DHT22;6874;52.084;5.090;2023-04-12T15:00:10;14.70;99.90
13606;DHT22;6874;52.084;5.090;2023-04-12T15:02:41;14.70;99.90
13606;DHT22;6874;52.084;5.090;2023-04-12T15:05:08;14.60;99.90
13606;DHT22;6874;52.084;5.090;2023-04-12T15:07:34;14.70;99.90
13606;DHT22;6874;52.084;5.090;2023-04-12T15:10:00;14.60;99.90
13606;DHT22;6874;52.084;5.090;2023-04-12T15:12:26;14.60;99.90
13606;DHT22;6874;52.084;5.090;2023-04-12T15:14:57;14.60;99.90
13606;DHT22;6874;52.084;5.090;2023-04-12T15:17:24;14.50;99.90
13606;DHT22;6874;52.084;5.090;2023-04-12T15:19:50;14.50;99.90
13606;DHT22;6874;52.084;5.090;2023-04-12T15:22:16;14.50;99.90
13606;DHT22;6874;52.084;5.090;2023-04-12T15:24:41;14.50;99.90
13606;DHT22;6874;52.084;5.090;2023-04-12T15:27:07;14.50;99.90
13606;DHT22;6874;52.084;5.090;2023-04-12T15:29:33;14.50;99.90
13606;DHT22;6874;52.084;5.090;2023-04-12T15:31:59;14.40;99.90
13606;DHT22;6874;52.084;5.090;2023-04-12T15:34:25;14.40;99.90
13606;DHT22;6874;52.084;5.090;2023-04-12T15:36:53;14.40;99.90
13606;DHT22;6874;52.084;5.090;2023-04-12T15:39:18;14.40;99.90
13606;DHT22;6874;52.084;5.090;2023-04-12T15:41:44;14.40;99.90
13606;DHT22;6874;52.084;5.090;2023-04-12T15:44:11;14.40;99.90
13606;DHT22;6874;52.084;5.090;2023-04-12T15:46:41;14.40;99.90
13606;DHT22;6874;52.084;5.090;2023-04-12T15:49:07;14.40;99.90
13606;DHT22;6874;52.084;5.090;2023-04-12T15:51:33;14.40;99.90
13606;DHT22;6874;52.084;5.090;2023-04-12T15:54:00;14.40;99.90
13606;DHT22;6874;52.084;5.090;2023-04-12T15:56:26;14.50;99.90
13606;DHT22;6874;52.084;5.090;2023-04-12T15:58:52;14.50;99.90
13606;DHT22;6874;52.084;5.090;2023-04-12T16:01:18;14.50;99.90
13606;DHT22;6874;52.084;5.090;2023-04-12T16:03:45;14.60;99.90
13606;DHT22;6874;52.084;5.090;2023-04-12T16:06:13;14.50;99.90
13606;DHT22;6874;52.084;5.090;2023-04-12T16:08:45;14.50;99.90
13606;DHT22;6874;52.084;5.090;2023-04-12T16:11:13;14.50;99.90
13606;DHT22;6874;52.084;5.090;2023-04-12T16:13:38;14.50;99.90
13606;DHT22;6874;52.084;5.090;2023-04-12T16:16:06;14.50;99.90